createdAt,value
2023-04-02T00:04:38.246Z,99.90
2023-04-02T00:09:40.528Z,99.90
2023-04-02T00:14:52.743Z,99.90
2023-04-02T00:20:01.331Z,99.90
2023-04-02T00:25:09.852Z,99.90
2023-04-02T00:30:15.002Z,99.90
2023-04-02T00:35:22.077Z,99.90
2023-04-02T00:40:26.919Z,99.90
2023-04-02T00:45:33.484Z,99.90
2023-04-02T00:50:41.306Z,99.90
2023-04-02T00:55:45.062Z,99.90
2023-04-02T01:00:52.415Z,99.90
2023-04-02T01:06:01.729Z,99.90
2023-04-02T01:11:08.562Z,99.90
2023-04-02T01:16:21.258Z,99.90
2023-04-02T01:21:37.139Z,99.90
2023-04-02T01:26:59.532Z,99.90
2023-04-02T01:32:07.106Z,99.90
2023-04-02T01:37:24.695Z,99.90
2023-04-02T01:42:30.359Z,99.90
2023-04-02T01:47:34.365Z,99.90
2023-04-02T01:52:40.864Z,99.90
2023-04-02T01:57:45.127Z,99.90
2023-04-02T02:02:51.760Z,99.90
2023-04-02T02:07:55.951Z,99.90
2023-04-02T02:13:00.611Z,99.90
2023-04-02T02:18:07.714Z,99.90
2023-04-02T02:23:12.278Z,99.90
2023-04-02T02:28:19.374Z,99.90
2023-04-02T02:33:28.553Z,99.90
2023-04-02T02:38:44.228Z,99.90
2023-04-02T02:43:53.343Z,99.90
2023-04-02T02:48:59.611Z,99.90
2023-04-02T02:54:05.327Z,99.90
2023-04-02T02:59:10.084Z,99.90
2023-04-02T03:04:13.732Z,99.90
2023-04-02T03:09:24.135Z,99.90
2023-04-02T03:14:34.171Z,99.90
2023-04-02T03:19:43.625Z,99.90
2023-04-02T03:24:53.650Z,99.90
2023-04-02T03:30:10.983Z,99.90
2023-04-02T03:35:23.533Z,99.90
2023-04-02T03:40:30.752Z,99.90
2023-04-02T03:45:39.203Z,99.90
2023-04-02T03:50:48.936Z,99.90
2023-04-02T03:55:51.594Z,99.90
2023-04-02T04:00:59.549Z,99.90
2023-04-02T04:06:08.427Z,99.90
2023-04-02T04:11:15.624Z,99.90
2023-04-02T04:16:22.178Z,99.90
2023-04-02T04:21:31.515Z,99.90
2023-04-02T04:26:42.179Z,99.90
2023-04-02T04:31:49.683Z,99.90
2023-04-02T04:36:56.439Z,99.90
2023-04-02T04:42:02.522Z,99.90
2023-04-02T04:47:10.293Z,99.90
2023-04-02T04:52:19.256Z,99.90
2023-04-02T04:57:29.655Z,99.90
2023-04-02T05:02:37.349Z,99.90
2023-04-02T05:07:50.605Z,99.90
2023-04-02T05:12:56.500Z,99.90
2023-04-02T05:18:21.962Z,99.90
2023-04-02T05:24:09.198Z,99.90
2023-04-02T05:29:59.397Z,99.90
2023-04-02T05:35:05.382Z,99.90
2023-04-02T05:40:15.403Z,99.90
2023-04-02T05:45:26.100Z,99.90
2023-04-02T05:50:31.882Z,99.90
2023-04-02T05:55:50.341Z,99.90
2023-04-02T06:01:22.969Z,99.90
2023-04-02T06:06:43.877Z,99.90
2023-04-02T06:11:52.222Z,99.90
2023-04-02T06:16:56.589Z,99.90
2023-04-02T06:22:08.890Z,99.90
2023-04-02T06:27:16.548Z,99.90
2023-04-02T06:32:19.109Z,99.90
2023-04-02T06:37:27.928Z,99.90
2023-04-02T06:42:35.204Z,99.90
2023-04-02T06:47:42.718Z,99.90
2023-04-02T06:52:47.851Z,99.90
2023-04-02T06:57:51.481Z,99.90
2023-04-02T07:02:56.644Z,99.90
2023-04-02T07:07:59.216Z,99.90
2023-04-02T07:13:03.248Z,99.90
2023-04-02T07:18:07.005Z,99.90
2023-04-02T07:23:09.612Z,99.90
2023-04-02T07:28:15.289Z,99.90
2023-04-02T07:33:19.391Z,99.90
2023-04-02T07:38:21.765Z,99.90
2023-04-02T07:43:25.258Z,99.90
2023-04-02T07:48:27.140Z,99.90
2023-04-02T07:53:32.006Z,99.90
2023-04-02T07:58:35.670Z,99.90
2023-04-02T08:03:37.539Z,99.90
2023-04-02T08:08:40.185Z,99.90
2023-04-02T08:13:44.381Z,99.90
2023-04-02T08:18:47.788Z,99.90
2023-04-02T08:23:50.054Z,99.90
2023-04-02T08:28:53.562Z,99.90
2023-04-02T08:33:56.987Z,99.90
2023-04-02T08:38:59.339Z,99.90
2023-04-02T08:44:17.244Z,99.90
2023-04-02T08:49:27.912Z,99.90
2023-04-02T08:54:32.479Z,99.90
2023-04-02T08:59:39.468Z,99.90
2023-04-02T09:04:42.403Z,99.90
2023-04-02T09:09:48.804Z,99.90
2023-04-02T09:15:07.436Z,99.90
2023-04-02T09:20:18.236Z,99.90
2023-04-02T09:25:23.181Z,99.90
2023-04-02T09:30:39.091Z,99.90
2023-04-02T09:35:57.874Z,99.90
2023-04-02T09:41:03.792Z,99.90
2023-04-02T09:46:17.765Z,99.90
2023-04-02T09:51:23.154Z,99.90
2023-04-02T09:56:26.763Z,99.90
2023-04-02T10:01:33.310Z,99.90
2023-04-02T10:06:38.487Z,99.90
2023-04-02T10:11:46.768Z,99.90
2023-04-02T10:16:53.612Z,99.90
2023-04-02T10:21:57.187Z,99.90
2023-04-02T10:27:09.998Z,99.90
2023-04-02T10:32:17.966Z,99.90
2023-04-02T10:37:52.300Z,99.60
2023-04-02T10:43:05.600Z,99.90
2023-04-02T10:48:17.091Z,98.40
2023-04-02T10:53:21.562Z,99.90
2023-04-02T10:58:26.856Z,99.90
2023-04-02T11:03:37.186Z,99.90
2023-04-02T11:08:43.086Z,99.90
2023-04-02T11:13:54.233Z,99.90
2023-04-02T11:19:33.120Z,99.90
2023-04-02T11:24:45.789Z,99.90
2023-04-02T11:29:50.801Z,99.90
2023-04-02T11:35:18.954Z,99.90
2023-04-02T11:40:48.927Z,99.90
2023-04-02T11:45:58.612Z,99.90
2023-04-02T11:51:05.074Z,99.90
2023-04-02T11:56:18.491Z,99.90
2023-04-02T12:01:56.460Z,99.90
2023-04-02T12:07:18.934Z,99.90
2023-04-02T12:12:29.591Z,97.60
2023-04-02T12:17:34.307Z,99.60
2023-04-02T12:22:40.113Z,99.90
2023-04-02T12:27:46.759Z,98.70
2023-04-02T12:32:49.728Z,97.50
2023-04-02T12:37:54.696Z,99.70
2023-04-02T12:42:59.261Z,99.80
2023-04-02T12:48:04.416Z,99.90
2023-04-02T12:53:22.676Z,99.90
2023-04-02T12:58:31.732Z,99.90
2023-04-02T13:03:33.968Z,99.90
2023-04-02T13:08:42.107Z,99.90
2023-04-02T13:13:48.612Z,99.90
2023-04-02T13:18:51.802Z,99.90
2023-04-02T13:23:54.604Z,97.20
2023-04-02T13:29:06.096Z,96.90
2023-04-02T13:34:08.802Z,97.20
2023-04-02T13:39:11.083Z,97.50
2023-04-02T13:44:26.046Z,99.10
2023-04-02T13:49:29.167Z,98.70
2023-04-02T13:54:36.558Z,98.10
2023-04-02T13:59:40.593Z,99.70
2023-04-02T14:04:50.603Z,99.90
2023-04-02T14:10:04.366Z,99.90
2023-04-02T14:15:21.758Z,99.90
2023-04-02T14:20:35.513Z,99.90
2023-04-02T14:25:45.982Z,99.90
2023-04-02T14:30:57.475Z,99.90
2023-04-02T14:36:09.751Z,99.90
2023-04-02T14:41:19.714Z,99.90
2023-04-02T14:46:27.852Z,99.90
2023-04-02T14:51:36.640Z,99.90
2023-04-02T14:56:47.587Z,99.90
2023-04-02T15:01:55.227Z,99.90
2023-04-02T15:07:04.879Z,99.90
2023-04-02T15:12:15.013Z,99.90
2023-04-02T15:17:21.766Z,99.90
2023-04-02T15:22:33.414Z,99.90
2023-04-02T15:27:51.732Z,99.90
2023-04-02T15:32:59.040Z,99.90
2023-04-02T15:38:10.109Z,95.80
2023-04-02T15:43:21.031Z,96.50
2023-04-02T15:48:52.800Z,91.60
2023-04-02T15:54:04.450Z,93.50
2023-04-02T15:59:32.085Z,93.70
2023-04-02T16:04:49.232Z,93.50
2023-04-02T16:10:03.282Z,95.90
2023-04-02T16:15:18.661Z,98.00
2023-04-02T16:20:28.612Z,99.00
2023-04-02T16:25:37.384Z,99.90
2023-04-02T16:30:57.928Z,99.90
2023-04-02T16:36:12.692Z,99.90
2023-04-02T16:41:25.024Z,99.90
2023-04-02T16:46:40.259Z,99.90
2023-04-02T16:51:52.616Z,99.90
2023-04-02T16:57:20.198Z,99.90
2023-04-02T17:02:33.274Z,99.90
2023-04-02T17:07:47.675Z,99.90
2023-04-02T17:12:57.640Z,99.90
2023-04-02T17:18:03.352Z,99.90
2023-04-02T17:23:08.676Z,99.90
2023-04-02T17:28:17.536Z,99.90
2023-04-02T17:33:22.709Z,99.90
2023-04-02T17:38:35.787Z,99.90
2023-04-02T17:43:46.926Z,99.90
2023-04-02T17:48:54.162Z,99.90
2023-04-02T17:54:11.030Z,99.90
2023-04-02T17:59:36.905Z,99.90
2023-04-02T18:04:51.410Z,99.90
2023-04-02T18:10:14.800Z,99.90
2023-04-02T18:15:39.782Z,99.90
2023-04-02T18:20:55.990Z,99.90
2023-04-02T18:26:11.388Z,99.90
2023-04-02T18:31:22.492Z,99.90
2023-04-02T18:36:36.502Z,99.90
2023-04-02T18:41:49.478Z,99.90
2023-04-02T18:46:55.981Z,99.90
2023-04-02T18:52:03.901Z,99.90
2023-04-02T18:57:16.821Z,99.90
2023-04-02T19:02:38.354Z,99.90
2023-04-02T19:07:47.325Z,99.90
2023-04-02T19:12:52.698Z,99.90
2023-04-02T19:18:06.864Z,99.90
2023-04-02T19:23:25.101Z,99.90
2023-04-02T19:28:35.457Z,99.90
2023-04-02T19:33:45.779Z,99.90
2023-04-02T19:39:00.638Z,99.90
2023-04-02T19:44:08.030Z,99.90
2023-04-02T19:49:17.254Z,99.90
2023-04-02T19:54:22.707Z,99.90
2023-04-02T19:59:28.706Z,99.90
2023-04-02T20:04:33.268Z,99.90
2023-04-02T20:09:36.728Z,99.90
2023-04-02T20:14:42.268Z,99.90
2023-04-02T20:19:46.221Z,99.90
2023-04-02T20:24:50.591Z,99.90
2023-04-02T20:30:02.350Z,99.90
2023-04-02T20:35:06.345Z,99.90
2023-04-02T20:40:10.307Z,99.90
2023-04-02T20:45:14.431Z,99.90
2023-04-02T20:50:17.915Z,99.90
2023-04-02T20:55:21.037Z,99.90
2023-04-02T21:00:25.120Z,99.90
2023-04-02T21:05:28.019Z,99.90
2023-04-02T21:10:30.309Z,99.90
2023-04-02T21:15:42.886Z,99.90
2023-04-02T21:20:46.322Z,99.90
2023-04-02T21:25:56.922Z,99.90
2023-04-02T21:31:11.068Z,99.90
2023-04-02T21:36:15.121Z,99.90
2023-04-02T21:41:19.393Z,99.90
2023-04-02T21:46:24.927Z,99.90
2023-04-02T21:51:29.202Z,99.90
2023-04-02T21:56:33.058Z,99.90
2023-04-02T22:01:39.060Z,99.90
2023-04-02T22:06:42.209Z,99.90
2023-04-02T22:11:46.782Z,99.90
2023-04-02T22:16:50.669Z,99.90
2023-04-02T22:21:53.547Z,99.90
2023-04-02T22:26:56.584Z,99.90
2023-04-02T22:32:00.386Z,99.90
2023-04-02T22:37:02.736Z,99.90
2023-04-02T22:42:05.123Z,99.90
2023-04-02T22:47:08.737Z,99.90
2023-04-02T22:52:10.992Z,99.90
2023-04-02T22:57:13.323Z,99.90
2023-04-02T23:02:16.963Z,99.90
2023-04-02T23:07:19.526Z,99.90
2023-04-02T23:12:21.918Z,99.90
2023-04-02T23:17:25.881Z,99.90
2023-04-02T23:22:27.999Z,99.90
2023-04-02T23:27:30.582Z,99.90
2023-04-02T23:32:34.564Z,99.90
2023-04-02T23:37:36.933Z,99.90
2023-04-02T23:42:39.193Z,99.90
2023-04-02T23:47:42.888Z,99.90
2023-04-02T23:52:44.789Z,99.90
2023-04-02T23:57:48.771Z,99.90
